Time;durP1;ratioP1;P1;durP2;ratioP2;P2;SDS_P1;SDS_P2;PMS_P1;PMS_P2;Temp;Humidity;BMP_temperature;BMP_pressure;BME280_temperature;BME280_humidity;BME280_pressure;Samples;Min_cycle;Max_cycle;Signal;HPM_P1;HPM_P2
2022/04/02 00:00:01;;;;;;;18.48;4.28;;;4.80;99.90;;;;;;5091028;28;20383;-71
2022/04/02 00:03:16;;;;;;;25.88;5.15;;;4.30;99.90;;;;;;5091199;28;20043;-70
2022/04/02 00:06:20;;;;;;;25.02;4.63;;;4.10;99.90;;;;;;5090734;28;20051;-70
2022/04/02 00:09:24;;;;;;;24.60;5.00;;;4.00;99.90;;;;;;5091411;28;20047;-69
2022/04/02 00:12:28;;;;;;;22.08;4.80;;;4.10;99.90;;;;;;5091320;28;20058;-70
2022/04/02 00:15:32;;;;;;;20.75;4.15;;;4.10;99.90;;;;;;5091168;28;20055;-71
2022/04/02 00:18:36;;;;;;;21.85;4.50;;;4.20;99.90;;;;;;5091159;28;20047;-70
2022/04/02 00:21:40;;;;;;;22.52;4.45;;;4.40;99.90;;;;;;5094051;28;20047;-70
2022/04/02 00:24:44;;;;;;;29.17;5.18;;;4.50;99.90;;;;;;5095093;28;20090;-69
2022/04/02 00:27:49;;;;;;;18.23;4.70;;;4.50;99.90;;;;;;5094150;28;20038;-70
2022/04/02 00:30:53;;;;;;;16.05;3.55;;;4.60;99.90;;;;;;5094616;28;20047;-70
2022/04/02 00:33:58;;;;;;;13.95;3.63;;;4.60;99.90;;;;;;5094757;28;20063;-71
2022/04/02 00:37:02;;;;;;;19.40;4.63;;;4.60;99.90;;;;;;5093450;28;20402;-70
2022/04/02 00:40:07;;;;;;;14.45;4.07;;;4.50;99.90;;;;;;5094552;28;20489;-70
2022/04/02 00:43:25;;;;;;;12.90;3.67;;;4.50;99.90;;;;;;5093879;28;20387;-70
2022/04/02 00:46:29;;;;;;;16.25;3.15;;;4.40;99.90;;;;;;5092916;28;20043;-70
2022/04/02 00:49:33;;;;;;;23.33;4.57;;;4.30;99.90;;;;;;5093816;28;20390;-70
2022/04/02 00:52:39;;;;;;;12.93;2.90;;;4.20;99.90;;;;;;5094771;28;20055;-70
2022/04/02 00:55:45;;;;;;;8.00;2.88;;;4.10;99.90;;;;;;5094340;28;20043;-70
2022/04/02 00:58:49;;;;;;;12.10;2.95;;;4.00;99.90;;;;;;5094626;28;20051;-70
2022/04/02 01:01:54;;;;;;;14.23;2.88;;;3.90;99.90;;;;;;5094182;28;20051;-70
2022/04/02 01:04:59;;;;;;;8.57;2.45;;;3.90;99.90;;;;;;5093488;28;20039;-70
2022/04/02 01:08:10;;;;;;;10.02;2.70;;;3.90;99.90;;;;;;5092927;28;20047;-70
2022/04/02 01:11:15;;;;;;;8.98;3.03;;;4.00;99.90;;;;;;5093550;28;20050;-70
2022/04/02 01:14:24;;;;;;;14.32;3.33;;;4.10;99.90;;;;;;5093587;28;20047;-71
2022/04/02 01:17:34;;;;;;;8.95;2.50;;;4.10;99.90;;;;;;5092522;28;20494;-71
2022/04/02 01:20:40;;;;;;;7.60;1.83;;;4.10;99.90;;;;;;5093165;28;20051;-70
2022/04/02 01:23:45;;;;;;;10.95;3.20;;;4.20;99.90;;;;;;5093245;28;20053;-70
2022/04/02 01:26:53;;;;;;;13.88;2.67;;;4.20;99.90;;;;;;5092824;28;20051;-70
2022/04/02 01:30:00;;;;;;;12.00;2.38;;;4.00;99.90;;;;;;5093411;28;20055;-70
2022/04/02 01:33:05;;;;;;;10.88;2.78;;;3.90;99.90;;;;;;5092952;28;20055;-70
2022/04/02 01:36:09;;;;;;;10.48;2.30;;;3.80;99.90;;;;;;5092615;28;20363;-70
2022/04/02 01:39:26;;;;;;;10.60;3.00;;;3.70;99.90;;;;;;5093256;28;20055;-70
2022/04/02 01:42:30;;;;;;;12.13;2.30;;;3.80;99.90;;;;;;5092515;28;20047;-70
2022/04/02 01:45:39;;;;;;;12.48;2.92;;;3.90;99.90;;;;;;5081237;28;20055;-70
2022/04/02 01:48:45;;;;;;;12.27;2.92;;;3.90;99.90;;;;;;5092554;28;20043;-70
2022/04/02 01:51:49;;;;;;;20.38;5.57;;;3.60;99.90;;;;;;5092660;28;20490;-70
2022/04/02 01:54:55;;;;;;;20.75;4.13;;;3.40;99.90;;;;;;5092905;28;20051;-70
2022/04/02 01:57:59;;;;;;;15.73;3.70;;;3.30;99.90;;;;;;5093188;28;20047;-70
2022/04/02 02:01:10;;;;;;;19.33;4.43;;;3.30;99.90;;;;;;5092146;28;20047;-70
2022/04/02 02:04:15;;;;;;;17.80;5.03;;;3.40;99.90;;;;;;5092318;28;20042;-70
2022/04/02 02:07:20;;;;;;;30.60;5.07;;;3.50;99.90;;;;;;5091840;28;20047;-70
2022/04/02 02:10:28;;;;;;;25.58;5.07;;;3.60;99.90;;;;;;5092317;28;20047;-70
2022/04/02 02:13:39;;;;;;;22.60;5.32;;;3.50;99.90;;;;;;5092220;28;20477;-71
2022/04/02 02:16:51;;;;;;;10.27;3.75;;;3.50;99.90;;;;;;5091613;28;20055;-71
2022/04/02 02:19:55;;;;;;;16.02;6.47;;;2.90;99.90;;;;;;5091676;28;20391;-72
2022/04/02 02:22:59;;;;;;;8.75;3.08;;;2.60;99.90;;;;;;5091537;28;20047;-71
2022/04/02 02:26:03;;;;;;;8.57;3.47;;;2.40;99.90;;;;;;5079939;28;20035;-71
2022/04/02 02:29:07;;;;;;;10.75;3.33;;;2.40;99.90;;;;;;5091891;28;20043;-71
2022/04/02 02:32:13;;;;;;;11.02;3.42;;;2.40;99.90;;;;;;5091421;28;20043;-70
2022/04/02 02:38:41;;;;;;;10.32;3.38;;;2.30;99.90;;;;;;5091469;28;20650;-70
2022/04/02 02:42:00;;;;;;;6.57;2.80;;;2.30;99.90;;;;;;5091392;28;20572;-71
2022/04/02 02:45:12;;;;;;;6.80;2.40;;;2.30;99.90;;;;;;5092502;28;20047;-71
2022/04/02 02:48:17;;;;;;;6.50;2.70;;;2.40;99.90;;;;;;5091992;28;20032;-70
2022/04/02 02:51:26;;;;;;;8.52;2.88;;;2.50;99.90;;;;;;5091450;28;20039;-71
2022/04/02 02:54:32;;;;;;;6.05;2.50;;;2.50;99.90;;;;;;5091406;28;20032;-70
2022/04/02 02:57:39;;;;;;;10.68;3.13;;;2.60;99.90;;;;;;5090983;28;20043;-70
2022/04/02 03:00:43;;;;;;;8.68;3.10;;;2.80;99.90;;;;;;5091239;28;20040;-70
2022/04/02 03:03:55;;;;;;;5.78;2.33;;;2.80;99.90;;;;;;5090894;28;20907;-71
2022/04/02 03:07:04;;;;;;;6.00;2.50;;;2.70;99.90;;;;;;5090460;28;20044;-71
2022/04/02 03:10:11;;;;;;;14.73;2.65;;;2.80;99.90;;;;;;5092059;28;20032;-71
2022/04/02 03:13:15;;;;;;;4.60;2.20;;;2.80;99.90;;;;;;5090624;28;20055;-71
2022/04/02 03:16:19;;;;;;;8.82;2.65;;;2.80;99.90;;;;;;5091443;28;20050;-71
2022/04/02 03:19:39;;;;;;;6.28;2.63;;;2.90;99.90;;;;;;5090964;28;20379;-71
2022/04/02 03:22:45;;;;;;;11.85;3.03;;;2.90;99.90;;;;;;5090334;28;20036;-71
2022/04/02 03:25:50;;;;;;;8.95;2.38;;;2.90;99.90;;;;;;5090442;28;20051;-70
2022/04/02 03:28:55;;;;;;;10.13;2.85;;;2.90;99.90;;;;;;5090722;28;20044;-71
2022/04/02 03:32:03;;;;;;;15.70;3.22;;;2.80;99.90;;;;;;5090341;28;20046;-71
2022/04/02 03:35:10;;;;;;;12.35;2.85;;;2.80;99.90;;;;;;5091032;28;20055;-71
2022/04/02 03:38:15;;;;;;;6.28;2.75;;;2.90;99.90;;;;;;5090598;28;20055;-71
2022/04/02 03:41:23;;;;;;;7.57;2.95;;;3.00;99.90;;;;;;5090762;28;20431;-71
2022/04/02 03:44:29;;;;;;;8.13;2.92;;;2.90;99.90;;;;;;5090809;28;20059;-71
2022/04/02 03:47:35;;;;;;;8.48;2.42;;;2.90;99.90;;;;;;5091108;28;20051;-70
2022/04/02 03:50:40;;;;;;;7.60;2.70;;;2.90;99.90;;;;;;5090965;28;20395;-70
2022/04/02 03:53:51;;;;;;;6.45;2.40;;;2.90;99.90;;;;;;5091438;28;20055;-70
2022/04/02 03:56:56;;;;;;;6.05;2.30;;;2.80;99.90;;;;;;5090204;28;20055;-71
2022/04/02 04:00:03;;;;;;;7.55;2.30;;;2.70;99.90;;;;;;5090921;28;20060;-70
2022/04/02 04:03:17;;;;;;;7.35;2.72;;;2.60;99.90;;;;;;5090818;28;20055;-70
2022/04/02 04:06:25;;;;;;;9.80;3.30;;;3.70;99.90;;;;;;5090091;28;20039;-71
2022/04/02 04:09:30;;;;;;;8.30;3.10;;;2.40;99.90;;;;;;5091420;28;20040;-70
2022/04/02 04:12:35;;;;;;;8.40;4.03;;;2.40;99.90;;;;;;5090942;28;20047;-71
2022/04/02 04:15:42;;;;;;;8.48;2.90;;;2.40;99.90;;;;;;5090645;28;20040;-71
2022/04/02 04:18:47;;;;;;;13.73;3.00;;;2.30;99.90;;;;;;5090579;28;20055;-71
2022/04/02 04:21:51;;;;;;;7.45;3.00;;;2.30;99.90;;;;;;5090375;28;20067;-71
2022/04/02 04:24:56;;;;;;;6.18;3.50;;;2.20;99.90;;;;;;5089953;28;20044;-70
2022/04/02 04:28:01;;;;;;;7.97;3.47;;;2.10;99.90;;;;;;5090347;28;20375;-71
2022/04/02 04:31:07;;;;;;;12.13;4.47;;;2.10;99.90;;;;;;5089328;28;20036;-71
2022/04/02 04:34:11;;;;;;;11.90;5.82;;;2.10;99.90;;;;;;5090750;28;20118;-70
2022/04/02 04:37:15;;;;;;;12.65;6.13;;;2.00;99.90;;;;;;5089121;28;20051;-71
2022/04/02 04:40:19;;;;;;;20.85;7.63;;;2.00;99.90;;;;;;5089999;28;20051;-70
2022/04/02 04:43:24;;;;;;;13.63;7.63;;;2.00;99.90;;;;;;5089247;28;20062;-70
2022/04/02 04:46:29;;;;;;;16.52;6.63;;;2.10;99.90;;;;;;5090025;28;20043;-70
2022/04/02 04:49:37;;;;;;;14.95;7.43;;;2.30;99.90;;;;;;5089765;28;20047;-71
2022/04/02 04:52:45;;;;;;;11.75;6.60;;;2.40;99.90;;;;;;5089500;28;20047;-70
2022/04/02 04:55:49;;;;;;;17.85;8.32;;;2.50;99.90;;;;;;5089745;28;20079;-70
2022/04/02 04:58:56;;;;;;;14.10;8.15;;;2.60;99.90;;;;;;5089693;28;20043;-70
2022/04/02 05:02:04;;;;;;;12.98;8.25;;;2.70;99.90;;;;;;5089290;28;20510;-71
2022/04/02 05:05:14;;;;;;;18.23;8.43;;;2.80;99.90;;;;;;5090561;28;20047;-71
2022/04/02 05:08:23;;;;;;;15.27;7.53;;;2.80;99.90;;;;;;5092991;28;20043;-71
2022/04/02 05:11:30;;;;;;;12.40;5.85;;;2.80;99.90;;;;;;5093439;28;20050;-70
2022/04/02 05:14:35;;;;;;;11.40;6.88;;;2.80;99.90;;;;;;5093017;28;20039;-70
2022/04/02 05:17:43;;;;;;;19.08;9.10;;;2.70;99.90;;;;;;5092939;28;20043;-71
2022/04/02 05:20:49;;;;;;;15.38;9.32;;;2.80;99.90;;;;;;5093182;28;20039;-71
2022/04/02 05:23:54;;;;;;;11.82;5.57;;;2.90;99.90;;;;;;5092189;28;20051;-70
2022/04/02 05:26:59;;;;;;;16.08;6.00;;;3.10;99.90;;;;;;5092637;28;20050;-71
2022/04/02 05:30:04;;;;;;;8.60;5.18;;;3.20;99.90;;;;;;5111987;28;20047;-70
2022/04/02 05:33:08;;;;;;;9.68;5.85;;;3.00;99.90;;;;;;5112119;28;20031;-70
2022/04/02 05:36:17;;;;;;;11.98;4.85;;;3.10;99.90;;;;;;5077206;28;20052;-71
2022/04/02 05:39:23;;;;;;;17.80;5.30;;;3.10;99.90;;;;;;5108547;28;20397;-71
2022/04/02 05:42:52;;;;;;;12.85;5.90;;;3.10;99.90;;;;;;5105074;28;20043;-71
2022/04/02 05:45:57;;;;;;;21.92;5.50;;;2.90;99.90;;;;;;5091753;28;20406;-71
2022/04/02 05:49:02;;;;;;;17.88;5.75;;;2.90;99.90;;;;;;5103846;28;20046;-72
2022/04/02 05:52:07;;;;;;;10.85;5.03;;;2.60;99.90;;;;;;5111336;28;20043;-71
2022/04/02 05:55:12;;;;;;;9.52;5.65;;;2.80;99.90;;;;;;5101519;28;20043;-70
2022/04/02 05:58:16;;;;;;;10.75;5.22;;;2.90;99.90;;;;;;5097488;28;20047;-70
2022/04/02 06:01:20;;;;;;;10.93;5.18;;;3.20;99.90;;;;;;5108542;28;20052;-70
2022/04/02 06:04:25;;;;;;;11.45;5.50;;;3.30;99.90;;;;;;5112974;28;20066;-71
2022/04/02 06:07:30;;;;;;;10.88;5.22;;;3.50;99.90;;;;;;5112338;28;20493;-70
2022/04/02 06:10:34;;;;;;;11.77;6.05;;;3.70;99.90;;;;;;5113465;28;20035;-71
2022/04/02 06:13:39;;;;;;;121.93;11.98;;;3.70;99.90;;;;;;5106244;28;20047;-71
2022/04/02 06:16:43;;;;;;;10.50;6.70;;;3.10;99.90;;;;;;5111785;28;20043;-70
2022/04/02 06:19:48;;;;;;;18.30;6.75;;;3.20;99.90;;;;;;5108912;28;20051;-70
2022/04/02 06:22:52;;;;;;;12.95;5.00;;;3.40;99.90;;;;;;5108025;28;20042;-71
2022/04/02 06:25:57;;;;;;;7.93;4.38;;;3.50;99.90;;;;;;5104735;28;20047;-71
2022/04/02 06:29:01;;;;;;;10.57;4.80;;;3.60;99.90;;;;;;5101907;28;20580;-70
2022/04/02 06:32:06;;;;;;;10.65;4.95;;;3.70;99.90;;;;;;5107445;28;20478;-71
2022/04/02 06:35:11;;;;;;;9.13;4.22;;;3.20;99.90;;;;;;5109191;28;20039;-71
2022/04/02 06:38:20;;;;;;;5.00;3.35;;;4.00;99.90;;;;;;5103727;28;20039;-70
2022/04/02 06:41:26;;;;;;;11.80;3.97;;;3.90;99.90;;;;;;5082431;28;20038;-71
2022/04/02 06:44:30;;;;;;;6.85;3.78;;;3.90;99.90;;;;;;5106382;28;20042;-70
2022/04/02 06:47:34;;;;;;;32.35;5.20;;;3.90;99.90;;;;;;5106265;28;20638;-70
2022/04/02 06:50:39;;;;;;;15.05;4.78;;;4.00;99.90;;;;;;5108849;28;20039;-70
2022/04/02 06:53:44;;;;;;;8.07;4.47;;;3.90;99.90;;;;;;5111846;28;20042;-71
2022/04/02 06:56:50;;;;;;;8.52;3.95;;;3.80;99.90;;;;;;5110754;28;20056;-71
2022/04/02 06:59:55;;;;;;;13.98;5.53;;;3.60;99.90;;;;;;5112353;28;20055;-71
2022/04/02 07:02:58;;;;;;;12.10;5.40;;;3.40;99.90;;;;;;5111889;28;20039;-71
2022/04/02 07:06:03;;;;;;;10.48;5.70;;;3.30;99.90;;;;;;5109981;28;20050;-71
2022/04/02 07:09:07;;;;;;;17.48;5.40;;;3.30;99.90;;;;;;5110726;28;20034;-71
2022/04/02 07:12:15;;;;;;;12.18;4.35;;;3.80;99.90;;;;;;5110603;28;20390;-71
2022/04/02 07:15:19;;;;;;;16.30;4.95;;;4.70;99.90;;;;;;5102497;28;20031;-71
2022/04/02 07:18:26;;;;;;;9.73;5.13;;;4.80;99.90;;;;;;5110974;28;20043;-71
2022/04/02 07:21:33;;;;;;;9.63;4.53;;;4.80;99.90;;;;;;5111280;28;20120;-71
2022/04/02 07:24:39;;;;;;;8.73;4.28;;;5.30;99.90;;;;;;5106320;28;20039;-71
2022/04/02 07:27:45;;;;;;;7.47;3.42;;;6.10;99.90;;;;;;5106053;28;20413;-71
2022/04/02 07:30:50;;;;;;;10.63;3.20;;;6.00;99.90;;;;;;5110479;28;20036;-71
2022/04/02 07:34:00;;;;;;;11.38;3.13;;;5.80;99.90;;;;;;5107646;28;20488;-71
2022/04/02 07:37:21;;;;;;;11.15;3.30;;;5.80;99.90;;;;;;5105480;28;20046;-71
2022/04/02 07:40:30;;;;;;;11.63;3.45;;;6.00;99.90;;;;;;5101712;28;20114;-71
2022/04/02 07:43:52;;;;;;;12.07;4.60;;;6.50;99.90;;;;;;5096856;28;20042;-71
2022/04/02 07:46:58;;;;;;;7.93;2.22;;;6.70;99.90;;;;;;5110473;28;20446;-71
2022/04/02 07:50:09;;;;;;;4.93;1.83;;;7.30;99.90;;;;;;5110763;28;20043;-71
2022/04/02 07:53:23;;;;;;;9.35;2.20;;;7.20;99.90;;;;;;5110031;28;20047;-71
2022/04/02 07:56:38;;;;;;;16.15;2.50;;;7.50;99.90;;;;;;5108669;28;20050;-71
2022/04/02 07:59:45;;;;;;;7.88;1.95;;;8.20;99.90;;;;;;5109880;28;20058;-71
2022/04/02 08:02:51;;;;;;;9.07;1.70;;;9.00;99.90;;;;;;5108665;28;20032;-72
2022/04/02 08:06:00;;;;;;;8.38;2.20;;;10.60;99.90;;;;;;5109607;28;20032;-72
2022/04/02 08:09:07;;;;;;;13.13;1.85;;;11.80;99.90;;;;;;5110345;28;20047;-73
2022/04/02 08:12:14;;;;;;;8.55;2.20;;;11.50;99.90;;;;;;5109637;28;20370;-72
2022/04/02 08:15:20;;;;;;;7.88;1.58;;;13.40;99.90;;;;;;5105032;28;20133;-73
2022/04/02 08:18:26;;;;;;;7.53;2.47;;;15.00;99.90;;;;;;5107845;28;20043;-73
2022/04/02 08:21:30;;;;;;;9.30;1.80;;;13.90;99.90;;;;;;5106120;28;20046;-73
2022/04/02 08:24:34;;;;;;;4.00;1.38;;;15.30;99.90;;;;;;5103837;28;20046;-73
2022/04/02 08:27:54;;;;;;;5.72;1.60;;;14.80;98.10;;;;;;5096917;28;20039;-73
2022/04/02 08:31:13;;;;;;;8.20;1.75;;;14.60;99.90;;;;;;5106982;28;20055;-72
2022/04/02 08:34:27;;;;;;;11.90;1.92;;;14.40;99.90;;;;;;5103357;28;20051;-72
2022/04/02 08:37:45;;;;;;;8.38;2.03;;;12.60;99.90;;;;;;5106272;28;20035;-72
2022/04/02 08:41:01;;;;;;;6.03;1.80;;;12.70;99.90;;;;;;5108373;28;20394;-73
2022/04/02 08:44:23;;;;;;;7.82;1.88;;;10.50;99.90;;;;;;5110257;28;20042;-73
2022/04/02 08:47:46;;;;;;;13.00;2.42;;;9.50;99.90;;;;;;5109763;28;20043;-73
2022/04/02 08:50:54;;;;;;;;;;;9.80;99.90;;;;;;5108161;28;20042;-73
2022/04/02 08:54:04;;;;;;;9.55;1.80;;;11.00;99.90;;;;;;5112490;28;19930;-73
2022/04/02 08:57:32;;;;;;;7.40;2.08;;;10.80;99.90;;;;;;5110302;28;21004;-73
2022/04/02 09:00:42;;;;;;;13.40;2.25;;;9.50;99.90;;;;;;5108809;28;20496;-73
2022/04/02 09:04:09;;;;;;;7.53;1.70;;;8.90;99.90;;;;;;5111227;28;20050;-73
2022/04/02 09:07:40;;;;;;;12.93;2.85;;;9.20;99.90;;;;;;5111855;28;20031;-73
2022/04/02 09:10:56;;;;;;;10.88;2.47;;;9.00;99.90;;;;;;5106024;28;20035;-73
2022/04/02 09:14:19;;;;;;;5.30;1.70;;;8.40;99.90;;;;;;5107191;28;20038;-73
2022/04/02 09:17:30;;;;;;;;;;;8.80;99.90;;;;;;5112761;28;20404;-72
2022/04/02 09:20:45;;;;;;;9.48;3.03;;;9.80;99.90;;;;;;5111555;28;19923;-69
2022/04/02 09:24:34;;;;;;;9.65;3.05;;;6.70;99.90;;;;;;5112570;28;20042;-69
2022/04/02 09:28:02;;;;;;;6.53;2.97;;;6.30;99.90;;;;;;5107422;28;20038;-69
2022/04/02 09:31:39;;;;;;;8.25;3.35;;;6.50;99.90;;;;;;5108303;28;20039;-69
2022/04/02 09:35:12;;;;;;;10.32;3.75;;;6.40;99.90;;;;;;5105375;28;20914;-69
2022/04/02 09:38:32;;;;;;;8.00;2.72;;;6.00;99.90;;;;;;5094633;28;20046;-69
2022/04/02 09:41:54;;;;;;;8.35;3.25;;;6.00;99.90;;;;;;5111285;28;20035;-69
2022/04/02 09:45:09;;;;;;;10.32;3.10;;;5.20;99.90;;;;;;5109451;28;20043;-69
2022/04/02 09:48:30;;;;;;;7.65;2.40;;;5.20;99.90;;;;;;5105763;28;20106;-69
2022/04/02 09:51:41;;;;;;;8.25;2.90;;;5.00;99.90;;;;;;5112020;28;20042;-69
2022/04/02 09:54:52;;;;;;;8.07;2.60;;;5.10;99.90;;;;;;5100790;28;20043;-69
2022/04/02 09:58:15;;;;;;;9.57;1.80;;;5.10;99.90;;;;;;5107059;28;20047;-69
2022/04/02 10:01:27;;;;;;;7.88;2.38;;;5.00;99.90;;;;;;5110685;28;20042;-68
2022/04/02 10:04:40;;;;;;;;;;;5.40;99.90;;;;;;5106554;28;20387;-70
2022/04/02 10:08:09;;;;;;;4.85;1.73;;;6.30;99.90;;;;;;5103956;28;19914;-70
2022/04/02 10:11:19;;;;;;;3.58;1.20;;;9.90;99.90;;;;;;5103370;28;20036;-69
2022/04/02 10:14:28;;;;;;;4.78;1.48;;;10.00;99.90;;;;;;5101945;28;20052;-70
2022/04/02 10:17:32;;;;;;;6.40;1.58;;;13.00;99.90;;;;;;5111623;28;20401;-69
2022/04/02 10:20:37;;;;;;;5.45;1.58;;;12.50;99.90;;;;;;5106772;28;20043;-70
2022/04/02 10:23:53;;;;;;;3.83;1.48;;;12.60;99.90;;;;;;5105779;28;20078;-69
2022/04/02 10:26:58;;;;;;;4.95;1.60;;;13.10;99.90;;;;;;5107211;28;20042;-69
2022/04/02 10:30:05;;;;;;;5.10;1.40;;;14.50;98.50;;;;;;5109815;28;20342;-70
2022/04/02 10:33:26;;;;;;;3.28;1.13;;;14.50;99.20;;;;;;5109644;28;20042;-70
2022/04/02 10:36:34;;;;;;;4.18;1.52;;;14.20;97.90;;;;;;5099934;28;20039;-70
2022/04/02 10:39:46;;;;;;;6.20;1.83;;;14.20;96.00;;;;;;5108362;28;20050;-70
2022/04/02 10:42:53;;;;;;;7.20;2.00;;;14.20;95.60;;;;;;5109224;28;20046;-71
2022/04/02 10:46:03;;;;;;;7.60;2.97;;;11.20;99.90;;;;;;5109873;28;20038;-70
2022/04/02 10:49:16;;;;;;;5.78;1.67;;;8.70;99.90;;;;;;5102698;28;20034;-70
2022/04/02 10:52:21;;;;;;;;;;;7.80;99.90;;;;;;5106121;28;20036;-67
2022/04/02 10:55:27;;;;;;;3.55;1.73;;;6.80;99.90;;;;;;5112605;28;19914;-69
2022/04/02 10:58:37;;;;;;;8.77;4.13;;;6.20;99.90;;;;;;5112142;28;20050;-69
2022/04/02 11:01:43;;;;;;;9.18;3.38;;;5.40;99.90;;;;;;5111682;28;20051;-69
2022/04/02 11:04:56;;;;;;;10.75;2.50;;;5.30;99.90;;;;;;5111230;28;20478;-70
2022/04/02 11:08:05;;;;;;;6.28;2.95;;;4.90;99.90;;;;;;5110914;28;20051;-69
2022/04/02 11:11:27;;;;;;;8.70;3.22;;;4.50;99.90;;;;;;5111677;28;20036;-69
2022/04/02 11:14:45;;;;;;;12.15;3.50;;;4.50;99.90;;;;;;5111622;28;20627;-69
2022/04/02 11:17:56;;;;;;;6.43;3.17;;;4.30;99.90;;;;;;5110215;28;20050;-69
2022/04/02 11:21:06;;;;;;;6.45;2.65;;;4.10;99.90;;;;;;5111106;28;20035;-70
2022/04/02 11:24:16;;;;;;;8.52;5.65;;;3.80;99.90;;;;;;5110916;28;20040;-70
2022/04/02 11:27:24;;;;;;;8.27;5.53;;;3.80;99.90;;;;;;5110305;28;20044;-69
2022/04/02 11:30:32;;;;;;;24.00;15.18;;;3.70;99.90;;;;;;5111085;28;20040;-69
2022/04/02 11:33:53;;;;;;;6.65;2.25;;;3.70;99.90;;;;;;5110754;28;20050;-70
2022/04/02 11:37:03;;;;;;;9.60;5.40;;;3.60;99.90;;;;;;5110651;28;20043;-69
2022/04/02 11:40:11;;;;;;;5.20;2.42;;;3.60;99.90;;;;;;5110566;28;20045;-70
2022/04/02 11:43:18;;;;;;;7.28;4.38;;;2.80;99.90;;;;;;5110735;28;20506;-69
2022/04/02 11:46:22;;;;;;;10.80;5.25;;;2.40;99.90;;;;;;5110497;28;20052;-70
2022/04/02 11:49:28;;;;;;;11.80;7.38;;;3.00;99.90;;;;;;5110189;28;20038;-70
2022/04/02 11:52:55;;;;;;;8.75;5.03;;;3.00;99.90;;;;;;5109558;28;20047;-69
2022/04/02 11:56:00;;;;;;;5.97;2.72;;;2.80;99.90;;;;;;5110942;28;20394;-70
2022/04/02 11:59:08;;;;;;;7.20;2.67;;;2.80;99.90;;;;;;5110563;28;20054;-69
2022/04/02 12:02:32;;;;;;;6.63;3.08;;;2.90;99.90;;;;;;5110876;28;20031;-70
2022/04/02 12:05:43;;;;;;;7.07;2.67;;;3.00;99.90;;;;;;5110695;28;20035;-69
2022/04/02 12:08:49;;;;;;;4.10;2.67;;;3.10;99.90;;;;;;5110347;28;20027;-69
2022/04/02 12:11:58;;;;;;;7.95;2.85;;;3.20;99.90;;;;;;5110480;28;20042;-69
2022/04/02 12:15:09;;;;;;;6.35;3.35;;;3.30;99.90;;;;;;5110337;28;20046;-69
2022/04/02 12:18:14;;;;;;;7.10;3.22;;;3.40;99.90;;;;;;5114069;28;20371;-70
2022/04/02 12:21:36;;;;;;;4.32;2.90;;;5.40;99.90;;;;;;5114940;28;20066;-70
2022/04/02 12:24:47;;;;;;;6.72;2.45;;;3.30;99.90;;;;;;5114587;28;20503;-70
2022/04/02 12:27:53;;;;;;;5.50;2.55;;;3.30;99.90;;;;;;5113316;28;20050;-69
2022/04/02 12:31:06;;;;;;;6.32;2.83;;;3.30;99.90;;;;;;5114504;28;20054;-69
2022/04/02 12:34:10;;;;;;;10.05;6.57;;;3.40;99.90;;;;;;5114628;28;20368;-69
2022/04/02 12:37:14;;;;;;;6.78;3.03;;;;;;;;;;5114063;28;20042;-69
2022/04/02 12:40:22;;;;;;;11.30;8.43;;;2.30;99.90;;;;;;5114212;28;20043;-70
2022/04/02 12:43:37;;;;;;;13.52;6.32;;;3.40;99.90;;;;;;5114018;28;20050;-69
2022/04/02 12:46:42;;;;;;;4.88;2.70;;;3.60;99.90;;;;;;5113563;28;20529;-70
2022/04/02 12:49:46;;;;;;;3.17;2.45;;;3.80;99.90;;;;;;5113986;28;20035;-69
2022/04/02 12:52:50;;;;;;;6.85;2.60;;;4.30;99.90;;;;;;5114221;28;20513;-69
2022/04/02 12:55:54;;;;;;;11.00;7.07;;;4.90;99.90;;;;;;5114005;28;20047;-70
2022/04/02 12:58:59;;;;;;;22.77;13.48;;;5.70;99.90;;;;;;5114089;28;20047;-68
2022/04/02 13:02:04;;;;;;;9.20;5.65;;;6.60;99.90;;;;;;5114011;28;20050;-70
2022/04/02 13:05:14;;;;;;;7.78;5.15;;;7.40;99.90;;;;;;5113573;28;20036;-68
2022/04/02 13:08:27;;;;;;;4.05;2.20;;;7.90;99.90;;;;;;5112342;28;20054;-69
2022/04/02 13:11:39;;;;;;;4.88;1.80;;;8.00;99.90;;;;;;5113342;28;20030;-70
2022/04/02 13:14:47;;;;;;;4.47;1.60;;;7.50;99.90;;;;;;5113589;28;20036;-69
2022/04/02 13:21:16;;;;;;;3.70;1.88;;;7.40;99.90;;;;;;5113648;28;20051;-67
2022/04/02 13:24:28;;;;;;;2.38;1.30;;;7.50;99.90;;;;;;5113344;28;20050;-69
2022/04/02 13:28:00;;;;;;;3.03;1.45;;;8.00;99.90;;;;;;5112790;28;20042;-69
2022/04/02 13:31:04;;;;;;;2.40;1.52;;;7.90;99.90;;;;;;5113363;28;20299;-68
2022/04/02 13:34:18;;;;;;;2.75;1.50;;;7.30;99.90;;;;;;5113332;28;20058;-69
2022/04/02 13:37:51;;;;;;;8.05;3.67;;;6.60;99.90;;;;;;5113175;28;20051;-68
2022/04/02 13:41:01;;;;;;;5.35;3.13;;;5.80;99.90;;;;;;5113180;28;20052;-68
2022/04/02 13:44:24;;;;;;;7.45;3.38;;;5.20;99.90;;;;;;5113162;28;20040;-68
2022/04/02 13:47:31;;;;;;;106.10;59.35;;;5.10;99.90;;;;;;5111919;28;20042;-68
2022/04/02 13:51:01;;;;;;;14.88;10.40;;;5.70;99.90;;;;;;5112897;28;20050;-69
2022/04/02 13:54:08;;;;;;;8.77;4.45;;;6.00;99.90;;;;;;5113374;28;20039;-69
2022/04/02 13:57:20;;;;;;;4.50;2.53;;;5.90;99.90;;;;;;5112874;28;20047;-69
2022/04/02 14:00:26;;;;;;;5.53;3.65;;;6.40;99.90;;;;;;5112796;28;20403;-69
2022/04/02 14:03:31;;;;;;;3.85;2.35;;;6.40;99.90;;;;;;5112964;28;20032;-69
2022/04/02 14:06:38;;;;;;;7.07;3.50;;;6.60;99.90;;;;;;5112595;28;20364;-69
2022/04/02 14:09:48;;;;;;;6.35;3.65;;;6.60;99.90;;;;;;5112600;28;20043;-69
2022/04/02 14:13:00;;;;;;;6.72;3.08;;;6.80;99.90;;;;;;5112781;28;20035;-69
2022/04/02 14:16:05;;;;;;;6.60;2.90;;;6.70;99.90;;;;;;5111824;28;20056;-69
2022/04/02 14:19:10;;;;;;;4.50;2.88;;;6.70;99.90;;;;;;5112478;28;20411;-69
2022/04/02 14:22:20;;;;;;;7.68;4.55;;;6.50;99.90;;;;;;5112163;28;20036;-69
2022/04/02 14:26:08;;;;;;;5.40;2.95;;;6.70;99.90;;;;;;5112365;28;20044;-69
2022/04/02 14:29:33;;;;;;;5.50;3.35;;;7.10;99.90;;;;;;5112212;28;20035;-69
2022/04/02 14:32:49;;;;;;;5.82;2.80;;;7.80;99.90;;;;;;5112145;28;20051;-70
2022/04/02 14:36:12;;;;;;;4.50;1.77;;;8.20;99.90;;;;;;5112160;28;20382;-70
2022/04/02 14:39:19;;;;;;;2.83;1.85;;;9.00;99.90;;;;;;5111381;28;20050;-69
2022/04/02 14:42:32;;;;;;;4.38;1.85;;;7.80;99.90;;;;;;5111950;28;20041;-69
2022/04/02 14:45:57;;;;;;;15.02;3.55;;;8.40;99.90;;;;;;5112096;28;20046;-69
2022/04/02 14:49:16;;;;;;;6.00;3.88;;;8.30;99.90;;;;;;5111991;28;20034;-69
2022/04/02 14:52:38;;;;;;;8.50;4.40;;;6.90;99.90;;;;;;5111814;28;20047;-69
2022/04/02 14:55:57;;;;;;;6.00;4.68;;;6.40;99.90;;;;;;5111989;28;20101;-69
2022/04/02 14:59:10;;;;;;;7.45;4.47;;;6.00;99.90;;;;;;5112064;28;20044;-69
2022/04/02 15:02:35;;;;;;;9.07;4.28;;;5.90;99.90;;;;;;5111615;28;20054;-70
2022/04/02 15:06:13;;;;;;;6.40;4.20;;;6.10;99.90;;;;;;5111813;28;20489;-69
2022/04/02 15:09:54;;;;;;;6.88;4.82;;;5.80;99.90;;;;;;5111733;28;20039;-69
2022/04/02 15:13:02;;;;;;;6.13;4.00;;;6.20;99.90;;;;;;5111281;28;20054;-68
2022/04/02 15:16:07;;;;;;;6.10;3.50;;;6.00;99.90;;;;;;5111125;28;20032;-68
2022/04/02 15:19:20;;;;;;;8.52;4.25;;;5.40;99.90;;;;;;5111476;28;20032;-69
2022/04/02 15:22:28;;;;;;;4.53;3.17;;;5.80;99.90;;;;;;5111018;28;20546;-68
2022/04/02 15:25:43;;;;;;;6.88;3.40;;;6.20;99.90;;;;;;5110884;28;20044;-68
2022/04/02 15:29:03;;;;;;;5.50;3.53;;;5.50;99.90;;;;;;5111224;28;20038;-68
2022/04/02 15:32:17;;;;;;;6.13;3.40;;;5.50;99.90;;;;;;5110815;28;20402;-68
2022/04/02 15:35:23;;;;;;;6.13;3.63;;;5.90;99.90;;;;;;5111277;28;20050;-68
2022/04/02 15:38:27;;;;;;;7.13;4.25;;;5.40;99.90;;;;;;5110840;28;20043;-68
2022/04/02 15:41:54;;;;;;;6.55;4.30;;;5.20;99.90;;;;;;5111040;28;20052;-68
2022/04/02 15:45:04;;;;;;;8.30;4.60;;;5.20;99.90;;;;;;5110923;28;20062;-69
2022/04/02 15:48:14;;;;;;;7.75;4.32;;;5.20;99.90;;;;;;5110654;28;20043;-68
2022/04/02 15:51:18;;;;;;;8.57;4.75;;;5.10;99.90;;;;;;5110835;28;20035;-68
2022/04/02 15:54:35;;;;;;;6.75;4.38;;;4.90;99.90;;;;;;5110490;28;20043;-68
2022/04/02 15:57:39;;;;;;;7.80;3.28;;;4.90;99.90;;;;;;5110380;28;20058;-70
2022/04/02 16:00:44;;;;;;;6.57;3.20;;;4.90;99.90;;;;;;5110804;28;20039;-69
2022/04/02 16:03:48;;;;;;;5.57;3.78;;;5.20;99.90;;;;;;5110460;28;20040;-69
2022/04/02 16:06:54;;;;;;;6.85;3.97;;;4.40;99.90;;;;;;5110346;28;20121;-68
2022/04/02 16:10:32;;;;;;;5.72;3.42;;;6.50;99.90;;;;;;5110848;28;20039;-68
2022/04/02 16:13:56;;;;;;;7.60;3.20;;;4.70;99.90;;;;;;5110370;28;20038;-69
2022/04/02 16:17:00;;;;;;;5.78;3.08;;;4.70;99.90;;;;;;5109932;28;20043;-69
2022/04/02 16:20:11;;;;;;;9.25;3.78;;;5.00;99.90;;;;;;5110947;28;20054;-68
2022/04/02 16:23:16;;;;;;;5.97;3.33;;;3.60;99.90;;;;;;5110542;28;20114;-69
2022/04/02 16:26:22;;;;;;;3.42;1.90;;;4.70;99.90;;;;;;5110024;28;20038;-68
2022/04/02 16:29:27;;;;;;;3.55;2.70;;;4.40;99.90;;;;;;5110441;28;20489;-68
2022/04/02 16:32:31;;;;;;;7.00;4.20;;;4.00;99.90;;;;;;5110276;28;20058;-69
2022/04/02 16:35:37;;;;;;;8.48;4.40;;;4.00;99.90;;;;;;5110605;28;20394;-68
2022/04/02 16:38:55;;;;;;;9.93;5.72;;;4.00;99.90;;;;;;5110321;28;20390;-68
2022/04/02 16:42:08;;;;;;;10.95;6.10;;;3.90;99.90;;;;;;5110259;28;20113;-68